createdAt,value
2022-11-08T00:06:56.485Z,40
2022-11-08T00:21:58.384Z,40
2022-11-08T00:37:00.331Z,0
2022-11-08T00:52:02.273Z,0
2022-11-08T01:07:04.302Z,0
2022-11-08T01:22:06.098Z,0
2022-11-08T01:37:08.221Z,0
2022-11-08T01:52:10.121Z,0
2022-11-08T02:07:12.085Z,0
2022-11-08T02:22:13.993Z,0
2022-11-08T02:37:15.997Z,0
2022-11-08T02:52:17.921Z,0
2022-11-08T03:07:24.709Z,0
2022-11-08T03:22:27.055Z,0
2022-11-08T03:37:28.980Z,0
2022-11-08T03:52:31.057Z,0
2022-11-08T04:07:33.001Z,0
2022-11-08T04:22:34.933Z,0
2022-11-08T04:37:36.824Z,0
2022-11-08T04:52:38.816Z,0
2022-11-08T05:07:40.817Z,0
2022-11-08T05:22:42.757Z,0
2022-11-08T05:37:44.670Z,0
2022-11-08T05:52:46.603Z,0
2022-11-08T06:07:48.508Z,0
2022-11-08T06:22:50.412Z,0
2022-11-08T06:37:59.083Z,0
2022-11-08T06:53:02.184Z,0
2022-11-08T07:08:04.080Z,0
2022-11-08T07:23:06.035Z,0
2022-11-08T07:38:07.971Z,0
2022-11-08T07:53:10.337Z,0
2022-11-08T08:08:12.364Z,0
2022-11-08T08:23:14.359Z,0
2022-11-08T08:38:16.398Z,0
2022-11-08T08:53:18.717Z,0
2022-11-08T09:08:20.807Z,0
2022-11-08T09:23:22.714Z,0
2022-11-08T09:38:24.706Z,0
2022-11-08T09:53:26.634Z,0
2022-11-08T10:08:28.708Z,0
2022-11-08T10:23:30.559Z,0
2022-11-08T10:38:32.460Z,0
2022-11-08T10:53:34.365Z,0
2022-11-08T11:08:36.306Z,0
2022-11-08T11:23:38.248Z,0
2022-11-08T11:38:40.176Z,0
2022-11-08T11:53:46.074Z,0
2022-11-08T12:08:50.623Z,0
2022-11-08T12:23:52.636Z,0
2022-11-08T12:38:54.521Z,0
2022-11-08T12:53:56.518Z,0
2022-11-08T13:08:58.468Z,0
2022-11-08T13:24:06.375Z,0
2022-11-08T13:39:12.008Z,0
2022-11-08T13:54:13.908Z,0
2022-11-08T14:09:15.828Z,0
2022-11-08T14:24:17.700Z,0
2022-11-08T14:39:19.639Z,0
2022-11-08T14:54:21.550Z,0
2022-11-08T15:09:23.485Z,10
2022-11-08T15:24:25.359Z,20
2022-11-08T15:39:27.306Z,30
2022-11-08T15:54:29.173Z,40
2022-11-08T16:09:31.105Z,50
2022-11-08T16:24:33.021Z,70
2022-11-08T16:39:34.943Z,90
2022-11-08T16:54:37.169Z,120
2022-11-08T17:09:39.106Z,130
2022-11-08T17:24:42.024Z,170
2022-11-08T17:39:43.980Z,190
2022-11-08T17:54:50.293Z,220
2022-11-08T18:09:54.899Z,210
2022-11-08T18:24:56.846Z,180
2022-11-08T18:39:58.807Z,200
2022-11-08T18:55:00.838Z,160
2022-11-08T19:10:02.775Z,160
2022-11-08T19:25:04.750Z,150
2022-11-08T19:40:06.658Z,140
2022-11-08T19:55:08.660Z,150
2022-11-08T20:10:10.602Z,150
2022-11-08T20:25:12.542Z,140
2022-11-08T20:40:14.537Z,120
2022-11-08T20:55:16.467Z,130
2022-11-08T21:10:40.886Z,120
2022-11-08T21:25:44.476Z,130
2022-11-08T21:40:46.417Z,100
2022-11-08T21:55:48.334Z,90
2022-11-08T22:10:50.240Z,80
2022-11-08T22:25:52.226Z,70
2022-11-08T22:40:54.171Z,70
2022-11-08T22:55:56.129Z,60
2022-11-08T23:10:58.039Z,60
2022-11-08T23:25:59.969Z,40
2022-11-08T23:41:01.885Z,30
2022-11-08T23:56:03.935Z,20
